Orakai — ZDNX7 — position and weather

sailwx.info

Track history (hours):
 
Tides and Currents Weather Stations Pressure Air Temp Water Temp Dewpoint Dewpoint Depression Visibility Wind Speed Wind Dir Waves Ship Positions

Orakai

Last reported at 2018-Jun-23 04:19 UTC. Time now 2018-Jun-23 04:44 UTC.
Position N 45°36' W 001°26'.

Length 103 m; draft 4.4 m.

Type: Tanker. MMSI: 236646000.

Date/timePositionNaut miles runAvg speedWind from/ knotsBaromVisibWave heightAir tempDewpointWater temp
2018-Jun-23 04:19N 45°36' W 001°26'1 1.8
2018-Jun-23 04:00N 45°36' W 001°26'22 4.1
2018-Jun-22 22:40N 45°53' W 001°45'1 4.8
2018-Jun-22 22:29N 45°54' W 001°46'2 4.8
2018-Jun-22 21:59N 45°56' W 001°47'2 4.8
2018-Jun-22 21:30N 45°58' W 001°48'4 7.5
2018-Jun-22 21:00N 46°01' W 001°52'12 8.0
2018-Jun-22 19:31N 46°11' W 002°02'1 8.1
2018-Jun-22 19:26N 46°11' W 002°03'3 8.1
2018-Jun-22 19:00N 46°14' W 002°06'4 8.1
2018-Jun-22 18:31N 46°17' W 002°10'4 8.1
2018-Jun-22 18:01N 46°20' W 002°14'4 8.2
2018-Jun-22 17:30N 46°22' W 002°19'4 8.1
2018-Jun-22 17:00N 46°25' W 002°23'5 8.0
2018-Jun-22 16:23N 46°28' W 002°29'66 8.3
2018-Jun-22 08:28N 47°16' W 003°35'4 8.0
2018-Jun-22 08:00N 47°20' W 003°37'5 9.0
2018-Jun-22 07:30N 47°24' W 003°39'611.2
2018-Jun-22 07:00N 47°30' W 003°39'612.6
2018-Jun-22 06:30N 47°36' W 003°36'611.6
2018-Jun-22 06:00N 47°40' W 003°31'510.9
2018-Jun-22 05:30N 47°42' W 003°23'2 4.4
2018-Jun-22 04:58N 47°44' W 003°22'0 0.0
2018-Jun-22 04:28N 47°44' W 003°22'0 0.0
2018-Jun-22 03:58N 47°44' W 003°22'0 0.0
2018-Jun-22 03:28N 47°44' W 003°22'0 0.0
2018-Jun-22 03:01N 47°44' W 003°22'0 0.0
2018-Jun-22 02:28N 47°44' W 003°22'0 0.0
2018-Jun-22 01:58N 47°44' W 003°22'0 0.0
2018-Jun-22 01:28N 47°44' W 003°22'0 0.0
2018-Jun-22 00:58N 47°44' W 003°22'0 0.0
2018-Jun-22 00:28N 47°44' W 003°22'0 0.0
2018-Jun-21 23:58N 47°44' W 003°22'0 0.0
2018-Jun-21 23:31N 47°44' W 003°22'0 0.0
2018-Jun-21 22:58N 47°44' W 003°22'0 0.0
2018-Jun-21 22:28N 47°44' W 003°22'0 0.0
2018-Jun-21 21:58N 47°44' W 003°22'0 0.0
2018-Jun-21 21:28N 47°44' W 003°22'0 0.0
2018-Jun-21 20:58N 47°44' W 003°22'0 0.0
2018-Jun-21 20:28N 47°44' W 003°22'0 0.0
2018-Jun-21 19:58N 47°44' W 003°22'0 0.0
2018-Jun-21 19:28N 47°44' W 003°22'0 0.0
2018-Jun-21 18:58N 47°44' W 003°22'0 0.0
2018-Jun-21 18:31N 47°44' W 003°22'0 0.0
2018-Jun-21 18:01N 47°44' W 003°22'0 0.0
2018-Jun-21 17:28N 47°44' W 003°22'0 0.0
2018-Jun-21 17:01N 47°44' W 003°22'0 0.0
2018-Jun-21 16:31N 47°44' W 003°22'0 0.0
2018-Jun-21 16:01N 47°44' W 003°22'0 0.0
2018-Jun-21 15:28N 47°44' W 003°22'0 0.0
2018-Jun-21 15:00N 47°44' W 003°22'0 0.0
2018-Jun-21 14:30N 47°44' W 003°22'0 0.0
2018-Jun-21 14:01N 47°44' W 003°22'0 0.0
2018-Jun-21 13:28N 47°44' W 003°22'0 0.0
2018-Jun-21 12:58N 47°44' W 003°22'0 0.0
2018-Jun-21 12:28N 47°44' W 003°22'0 0.0
2018-Jun-21 12:01N 47°44' W 003°22'0 0.0
2018-Jun-21 11:30N 47°44' W 003°22'0 0.0
2018-Jun-21 11:01N 47°44' W 003°22'1 1.8
2018-Jun-21 10:30N 47°43' W 003°22'5 9.6
2018-Jun-21 10:00N 47°40' W 003°28'5 9.1
2018-Jun-21 09:30N 47°38' W 003°34'612.2
2018-Jun-21 09:00N 47°32' W 003°30'612.3
2018-Jun-21 08:30N 47°27' W 003°27'612.1
2018-Jun-21 08:00N 47°21' W 003°23'611.7
2018-Jun-21 07:30N 47°16' W 003°19'612.2
2018-Jun-21 07:00N 47°13' W 003°11'612.2
2018-Jun-21 06:30N 47°11' W 003°02'612.3
2018-Jun-21 05:59N 47°08' W 002°54'612.5
2018-Jun-21 05:30N 47°06' W 002°46'612.5
2018-Jun-21 05:00N 47°04' W 002°37'612.4
2018-Jun-21 04:30N 47°04' W 002°28'5 9.6
2018-Jun-21 04:00N 47°08' W 002°23'611.1
2018-Jun-21 03:30N 47°12' W 002°17'713.2
2018-Jun-21 03:00N 47°17' W 002°11'3 5.9
2018-Jun-21 02:30N 47°18' W 002°07'0 0.0
2018-Jun-21 01:32N 47°18' W 002°07'0 0.0
2018-Jun-21 01:23N 47°18' W 002°07'0 0.0
2018-Jun-21 00:38N 47°18' W 002°07'0 0.0
2018-Jun-21 00:23N 47°18' W 002°07'0 0.0
2018-Jun-20 23:53N 47°18' W 002°07'0 0.0
2018-Jun-20 23:23N 47°18' W 002°07'0 0.0
2018-Jun-20 22:59N 47°18' W 002°07'0 0.0
2018-Jun-20 22:29N 47°18' W 002°07'0 0.0
2018-Jun-20 21:56N 47°18' W 002°07'0 0.0
2018-Jun-20 21:29N 47°18' W 002°07'0 0.0
2018-Jun-20 20:59N 47°18' W 002°07'0 0.0
2018-Jun-20 20:29N 47°18' W 002°07'0 0.0
2018-Jun-20 19:59N 47°18' W 002°07'0 0.0
2018-Jun-20 19:29N 47°18' W 002°07'0 0.0
2018-Jun-20 18:47N 47°18' W 002°07'0 0.0
2018-Jun-20 18:17N 47°18' W 002°07'0 0.0
2018-Jun-20 17:59N 47°18' W 002°07'0 0.0
2018-Jun-20 17:17N 47°18' W 002°07'0 0.0
2018-Jun-20 16:59N 47°18' W 002°07'0 0.0
2018-Jun-20 16:20N 47°18' W 002°07'0 0.0
2018-Jun-20 15:59N 47°18' W 002°07'0 0.0
2018-Jun-20 14:50N 47°18' W 002°07'0 0.0
2018-Jun-20 14:26N 47°18' W 002°07'0 0.0
2018-Jun-20 13:53N 47°18' W 002°07'0 0.0
2018-Jun-20 13:23N 47°18' W 002°07'0 0.0
2018-Jun-20 12:20N 47°18' W 002°07'0 0.0
2018-Jun-20 11:56N 47°18' W 002°07'0 0.0
2018-Jun-20 11:23N 47°18' W 002°07'0 0.0
2018-Jun-20 10:56N 47°18' W 002°07'0 0.0
2018-Jun-20 10:23N 47°18' W 002°07'0 0.0
2018-Jun-20 09:39N 47°18' W 002°07'0 0.0
2018-Jun-20 09:28N 47°18' W 002°07'1 2.6
2018-Jun-20 09:00N 47°18' W 002°09'510.3
2018-Jun-20 08:30N 47°14' W 002°15'612.6
2018-Jun-20 08:00N 47°09' W 002°19'4 7.5
2018-Jun-20 07:30N 47°07' W 002°24'1 1.7
2018-Jun-20 07:00N 47°07' W 002°25'0 0.1
2018-Jun-20 06:27N 47°07' W 002°25'0 0.1
2018-Jun-20 05:57N 47°07' W 002°25'0 0.0
2018-Jun-20 05:30N 47°07' W 002°25'0 0.1
2018-Jun-20 05:00N 47°07' W 002°25'0 0.1
2018-Jun-20 04:30N 47°07' W 002°25'0 0.1
2018-Jun-20 04:00N 47°07' W 002°25'0 0.1
2018-Jun-20 03:30N 47°07' W 002°25'0 0.0
2018-Jun-20 03:00N 47°07' W 002°25'0 0.0
2018-Jun-20 02:30N 47°07' W 002°25'0 0.0
2018-Jun-20 02:00N 47°07' W 002°25'0 0.0
2018-Jun-20 01:27N 47°07' W 002°25'0 0.0
2018-Jun-20 00:57N 47°07' W 002°25'0 0.0
2018-Jun-20 00:30N 47°07' W 002°25'0 0.0
2018-Jun-20 00:00N 47°07' W 002°25'0 0.0
2018-Jun-19 23:30N 47°07' W 002°25'0 0.0
2018-Jun-19 23:00N 47°07' W 002°25'0 0.0
2018-Jun-19 22:30N 47°07' W 002°25'0 0.0
2018-Jun-19 22:00N 47°07' W 002°25'0 0.1
2018-Jun-19 21:30N 47°07' W 002°25'0 0.1
2018-Jun-19 21:00N 47°07' W 002°25'0 0.0
2018-Jun-19 20:30N 47°07' W 002°25'0 0.1
2018-Jun-19 20:00N 47°07' W 002°25'0 0.1
2018-Jun-19 19:30N 47°07' W 002°25'0 0.1
2018-Jun-19 19:00N 47°07' W 002°25'0 0.0
2018-Jun-19 18:30N 47°07' W 002°25'0 0.0
2018-Jun-19 18:00N 47°07' W 002°25'0 0.0
2018-Jun-19 17:30N 47°07' W 002°25'0 0.0
2018-Jun-19 16:39N 47°07' W 002°25'0 0.1
2018-Jun-19 15:45N 47°07' W 002°25'0 0.1
2018-Jun-19 15:30N 47°07' W 002°25'0 0.1
2018-Jun-19 14:21N 47°07' W 002°25'0 0.0
2018-Jun-19 13:39N 47°07' W 002°26'0 0.0
2018-Jun-19 11:54N 47°07' W 002°26'0 0.0
2018-Jun-19 11:30N 47°07' W 002°26'0 0.0
2018-Jun-19 11:00N 47°07' W 002°26'0 0.0
2018-Jun-19 10:21N 47°07' W 002°25'0 0.0
2018-Jun-19 09:54N 47°07' W 002°25'0 0.1
2018-Jun-19 09:27N 47°07' W 002°25'0 0.1
2018-Jun-19 08:57N 47°07' W 002°25'0 0.0
2018-Jun-19 08:30N 47°07' W 002°25'0 0.0
2018-Jun-19 08:00N 47°07' W 002°25'0 0.1
2018-Jun-19 07:31N 47°07' W 002°25'0 0.1
2018-Jun-19 07:00N 47°07' W 002°25'2 4.7
2018-Jun-19 06:30N 47°05' W 002°26'611.5
2018-Jun-19 06:00N 47°02' W 002°33'611.1
2018-Jun-19 05:27N 46°59' W 002°41'611.4
2018-Jun-19 04:53N 47°02' W 002°50'511.5
2018-Jun-19 04:29N 47°04' W 002°56'511.6
2018-Jun-19 04:00N 47°07' W 003°03'612.0
2018-Jun-19 03:30N 47°09' W 003°11'611.6
2018-Jun-19 03:00N 47°12' W 003°19'611.1
2018-Jun-19 02:30N 47°14' W 003°26'611.2
2018-Jun-19 02:01N 47°17' W 003°33'611.4
2018-Jun-19 01:30N 47°19' W 003°41'511.3
2018-Jun-19 01:00N 47°22' W 003°48'611.1
2018-Jun-19 00:30N 47°24' W 003°56'611.5
2018-Jun-19 00:00N 47°26' W 004°04'611.9
2018-Jun-18 23:30N 47°29' W 004°12'611.3
2018-Jun-18 23:00N 47°31' W 004°19'1211.5
2018-Jun-18 21:57N 47°37' W 004°35'2212.0
2018-Jun-18 20:10N 47°48' W 005°03'1312.3
2018-Jun-18 19:04N 47°55' W 005°19'18211.0
2018-Jun-18 02:35N 50°52' W 006°24'511.8
2018-Jun-18 02:09N 50°57' W 006°21'611.6
2018-Jun-18 01:39N 51°03' W 006°19'1911.1
2018-Jun-17 23:54N 51°21' W 006°11'8511.6
2018-Jun-17 16:33N 52°42' W 005°27'115.3
2018-Jun-17 16:30N 52°43' W 005°27'73 9.7
2018-Jun-17 08:58N 53°37' W 004°04'612.2
2018-Jun-17 08:30N 53°36' W 003°55'612.5
2018-Jun-17 08:00N 53°35' W 003°45'612.7
2018-Jun-17 07:30N 53°34' W 003°34'613.1
2018-Jun-17 07:00N 53°33' W 003°23'611.6
2018-Jun-17 06:30N 53°31' W 003°14'612.9
2018-Jun-17 06:00N 53°29' W 003°04'3 5.8
2018-Jun-17 05:30N 53°26' W 003°01'0 0.1
2018-Jun-17 05:00N 53°26' W 003°00'1 1.1
2018-Jun-17 04:30N 53°26' W 003°00'0 0.3
2018-Jun-17 03:58N 53°26' W 003°00'0 0.0
2018-Jun-17 03:28N 53°26' W 002°60'0 0.0
2018-Jun-17 02:58N 53°26' W 003°00'0 0.0
2018-Jun-17 02:28N 53°26' W 003°00'0 0.0
2018-Jun-17 01:58N 53°26' W 003°00'0 0.0
2018-Jun-17 01:28N 53°26' W 003°00'0 0.0
2018-Jun-17 00:58N 53°26' W 003°00'0 0.0
2018-Jun-17 00:28N 53°26' W 003°00'0 0.0
2018-Jun-16 23:58N 53°26' W 003°00'0 0.0
2018-Jun-16 23:28N 53°26' W 003°00'0 0.0
2018-Jun-16 22:55N 53°26' W 003°00'0 0.0
2018-Jun-16 22:25N 53°26' W 002°60'0 0.0
2018-Jun-16 21:58N 53°26' W 003°00'0 0.0
2018-Jun-16 21:28N 53°26' W 003°00'0 0.0
2018-Jun-16 20:58N 53°26' W 003°00'0 0.0
2018-Jun-16 20:28N 53°26' W 003°00'0 0.0
2018-Jun-16 19:58N 53°26' W 003°00'0 0.0
2018-Jun-16 19:28N 53°26' W 003°00'0 0.0
2018-Jun-16 18:58N 53°26' W 003°00'0 0.0
2018-Jun-16 18:28N 53°26' W 003°00'0 0.0
2018-Jun-16 17:58N 53°26' W 003°00'0 0.0
2018-Jun-16 17:28N 53°26' W 003°00'0 0.0
2018-Jun-16 16:58N 53°26' W 003°00'0 0.0
2018-Jun-16 16:28N 53°26' W 003°00'0 0.0
2018-Jun-16 15:55N 53°26' W 003°00'0 0.0
2018-Jun-16 15:28N 53°26' W 003°00'0 0.0
2018-Jun-16 14:55N 53°26' W 003°00'0 0.0
2018-Jun-16 14:25N 53°26' W 003°00'0 0.0
2018-Jun-16 13:58N 53°26' W 003°00'0 0.0
2018-Jun-16 13:25N 53°26' W 003°00'0 0.0
2018-Jun-16 12:55N 53°26' W 003°00'0 0.0
2018-Jun-16 12:28N 53°26' W 003°00'0 0.0
2018-Jun-16 11:58N 53°26' W 003°00'0 0.0
2018-Jun-16 11:28N 53°26' W 003°00'0 0.0
2018-Jun-16 10:58N 53°26' W 003°00'0 0.0
2018-Jun-16 10:28N 53°26' W 003°00'0 0.0
2018-Jun-16 09:58N 53°26' W 003°00'0 0.0
2018-Jun-16 09:28N 53°26' W 002°60'0 0.0
2018-Jun-16 08:55N 53°26' W 003°00'0 0.0
2018-Jun-16 08:28N 53°26' W 003°00'0 0.0
2018-Jun-16 07:58N 53°26' W 003°00'0 0.0
2018-Jun-16 07:28N 53°26' W 003°00'0 0.0
2018-Jun-16 06:58N 53°26' W 003°00'0 0.0
2018-Jun-16 06:28N 53°26' W 003°00'0 0.0
2018-Jun-16 05:58N 53°26' W 003°00'0 0.0
2018-Jun-16 05:28N 53°26' W 003°00'0 0.0
2018-Jun-16 04:52N 53°26' W 003°00'0 0.0
2018-Jun-16 04:28N 53°26' W 003°00'0 0.0
2018-Jun-16 03:58N 53°26' W 003°00'0 0.0
2018-Jun-16 03:28N 53°26' W 003°00'0 0.0
2018-Jun-16 02:58N 53°26' W 003°00'0 0.0
2018-Jun-16 02:28N 53°26' W 003°00'0 0.0
2018-Jun-16 01:55N 53°26' W 003°00'0 0.0
2018-Jun-16 01:22N 53°26' W 002°60'0 0.0
2018-Jun-16 00:58N 53°26' W 003°00'0 0.2
2018-Jun-16 00:30N 53°26' W 003°00'1 1.2
2018-Jun-16 00:00N 53°27' W 003°01'0 0.3
2018-Jun-15 23:29N 53°26' W 003°01'1 2.6
2018-Jun-15 22:59N 53°27' W 003°02'612.6
2018-Jun-15 22:30N 53°32' W 003°09'612.3
2018-Jun-15 22:01N 53°31' W 003°19'3 6.9
2018-Jun-15 21:31N 53°32' W 003°25'510.2
2018-Jun-15 21:00N 53°31' W 003°33'611.3
2018-Jun-15 20:30N 53°31' W 003°43'714.4
2018-Jun-15 20:00N 53°31' W 003°55'  
Track history (hours):
 
Tides and Currents Weather Stations Pressure Air Temp Water Temp Dewpoint Dewpoint Depression Visibility Wind Speed Wind Dir Waves Ship Positions

Orakai

Last reported at 2018-Jun-23 04:19 UTC. Time now 2018-Jun-23 04:44 UTC.
Position N 45°36' W 001°26'.

Length 103 m; draft 4.4 m.

Type: Tanker. MMSI: 236646000.

Date/timePositionNaut miles runAvg speedWind from/ knotsBaromVisibWave heightAir tempDewpointWater temp
2018-Jun-23 04:19N 45°36' W 001°26'1 1.8
2018-Jun-23 04:00N 45°36' W 001°26'22 4.1
2018-Jun-22 22:40N 45°53' W 001°45'1 4.8
2018-Jun-22 22:29N 45°54' W 001°46'2 4.8
2018-Jun-22 21:59N 45°56' W 001°47'2 4.8
2018-Jun-22 21:30N 45°58' W 001°48'4 7.5
2018-Jun-22 21:00N 46°01' W 001°52'12 8.0
2018-Jun-22 19:31N 46°11' W 002°02'1 8.1
2018-Jun-22 19:26N 46°11' W 002°03'3 8.1
2018-Jun-22 19:00N 46°14' W 002°06'4 8.1
2018-Jun-22 18:31N 46°17' W 002°10'4 8.1
2018-Jun-22 18:01N 46°20' W 002°14'4 8.2
2018-Jun-22 17:30N 46°22' W 002°19'4 8.1
2018-Jun-22 17:00N 46°25' W 002°23'5 8.0
2018-Jun-22 16:23N 46°28' W 002°29'66 8.3
2018-Jun-22 08:28N 47°16' W 003°35'4 8.0
2018-Jun-22 08:00N 47°20' W 003°37'5 9.0
2018-Jun-22 07:30N 47°24' W 003°39'611.2
2018-Jun-22 07:00N 47°30' W 003°39'612.6
2018-Jun-22 06:30N 47°36' W 003°36'611.6
2018-Jun-22 06:00N 47°40' W 003°31'510.9
2018-Jun-22 05:30N 47°42' W 003°23'2 4.4
2018-Jun-22 04:58N 47°44' W 003°22'0 0.0
2018-Jun-22 04:28N 47°44' W 003°22'0 0.0
2018-Jun-22 03:58N 47°44' W 003°22'0 0.0
2018-Jun-22 03:28N 47°44' W 003°22'0 0.0
2018-Jun-22 03:01N 47°44' W 003°22'0 0.0
2018-Jun-22 02:28N 47°44' W 003°22'0 0.0
2018-Jun-22 01:58N 47°44' W 003°22'0 0.0
2018-Jun-22 01:28N 47°44' W 003°22'0 0.0
2018-Jun-22 00:58N 47°44' W 003°22'0 0.0
2018-Jun-22 00:28N 47°44' W 003°22'0 0.0
2018-Jun-21 23:58N 47°44' W 003°22'0 0.0
2018-Jun-21 23:31N 47°44' W 003°22'0 0.0
2018-Jun-21 22:58N 47°44' W 003°22'0 0.0
2018-Jun-21 22:28N 47°44' W 003°22'0 0.0
2018-Jun-21 21:58N 47°44' W 003°22'0 0.0
2018-Jun-21 21:28N 47°44' W 003°22'0 0.0
2018-Jun-21 20:58N 47°44' W 003°22'0 0.0
2018-Jun-21 20:28N 47°44' W 003°22'0 0.0
2018-Jun-21 19:58N 47°44' W 003°22'0 0.0
2018-Jun-21 19:28N 47°44' W 003°22'0 0.0
2018-Jun-21 18:58N 47°44' W 003°22'0 0.0
2018-Jun-21 18:31N 47°44' W 003°22'0 0.0
2018-Jun-21 18:01N 47°44' W 003°22'0 0.0
2018-Jun-21 17:28N 47°44' W 003°22'0 0.0
2018-Jun-21 17:01N 47°44' W 003°22'0 0.0
2018-Jun-21 16:31N 47°44' W 003°22'0 0.0
2018-Jun-21 16:01N 47°44' W 003°22'0 0.0
2018-Jun-21 15:28N 47°44' W 003°22'0 0.0
2018-Jun-21 15:00N 47°44' W 003°22'0 0.0
2018-Jun-21 14:30N 47°44' W 003°22'0 0.0
2018-Jun-21 14:01N 47°44' W 003°22'0 0.0
2018-Jun-21 13:28N 47°44' W 003°22'0 0.0
2018-Jun-21 12:58N 47°44' W 003°22'0 0.0
2018-Jun-21 12:28N 47°44' W 003°22'0 0.0
2018-Jun-21 12:01N 47°44' W 003°22'0 0.0
2018-Jun-21 11:30N 47°44' W 003°22'0 0.0
2018-Jun-21 11:01N 47°44' W 003°22'1 1.8
2018-Jun-21 10:30N 47°43' W 003°22'5 9.6
2018-Jun-21 10:00N 47°40' W 003°28'5 9.1
2018-Jun-21 09:30N 47°38' W 003°34'612.2
2018-Jun-21 09:00N 47°32' W 003°30'612.3
2018-Jun-21 08:30N 47°27' W 003°27'612.1
2018-Jun-21 08:00N 47°21' W 003°23'611.7
2018-Jun-21 07:30N 47°16' W 003°19'612.2
2018-Jun-21 07:00N 47°13' W 003°11'612.2
2018-Jun-21 06:30N 47°11' W 003°02'612.3
2018-Jun-21 05:59N 47°08' W 002°54'612.5
2018-Jun-21 05:30N 47°06' W 002°46'612.5
2018-Jun-21 05:00N 47°04' W 002°37'612.4
2018-Jun-21 04:30N 47°04' W 002°28'5 9.6
2018-Jun-21 04:00N 47°08' W 002°23'611.1
2018-Jun-21 03:30N 47°12' W 002°17'713.2
2018-Jun-21 03:00N 47°17' W 002°11'3 5.9
2018-Jun-21 02:30N 47°18' W 002°07'0 0.0
2018-Jun-21 01:32N 47°18' W 002°07'0 0.0
2018-Jun-21 01:23N 47°18' W 002°07'0 0.0
2018-Jun-21 00:38N 47°18' W 002°07'0 0.0
2018-Jun-21 00:23N 47°18' W 002°07'0 0.0
2018-Jun-20 23:53N 47°18' W 002°07'0 0.0
2018-Jun-20 23:23N 47°18' W 002°07'0 0.0
2018-Jun-20 22:59N 47°18' W 002°07'0 0.0
2018-Jun-20 22:29N 47°18' W 002°07'0 0.0
2018-Jun-20 21:56N 47°18' W 002°07'0 0.0
2018-Jun-20 21:29N 47°18' W 002°07'0 0.0
2018-Jun-20 20:59N 47°18' W 002°07'0 0.0
2018-Jun-20 20:29N 47°18' W 002°07'0 0.0
2018-Jun-20 19:59N 47°18' W 002°07'0 0.0
2018-Jun-20 19:29N 47°18' W 002°07'0 0.0
2018-Jun-20 18:47N 47°18' W 002°07'0 0.0
2018-Jun-20 18:17N 47°18' W 002°07'0 0.0
2018-Jun-20 17:59N 47°18' W 002°07'0 0.0
2018-Jun-20 17:17N 47°18' W 002°07'0 0.0
2018-Jun-20 16:59N 47°18' W 002°07'0 0.0
2018-Jun-20 16:20N 47°18' W 002°07'0 0.0
2018-Jun-20 15:59N 47°18' W 002°07'0 0.0
2018-Jun-20 14:50N 47°18' W 002°07'0 0.0
2018-Jun-20 14:26N 47°18' W 002°07'0 0.0
2018-Jun-20 13:53N 47°18' W 002°07'0 0.0
2018-Jun-20 13:23N 47°18' W 002°07'0 0.0
2018-Jun-20 12:20N 47°18' W 002°07'0 0.0
2018-Jun-20 11:56N 47°18' W 002°07'0 0.0
2018-Jun-20 11:23N 47°18' W 002°07'0 0.0
2018-Jun-20 10:56N 47°18' W 002°07'0 0.0
2018-Jun-20 10:23N 47°18' W 002°07'0 0.0
2018-Jun-20 09:39N 47°18' W 002°07'0 0.0
2018-Jun-20 09:28N 47°18' W 002°07'1 2.6
2018-Jun-20 09:00N 47°18' W 002°09'510.3
2018-Jun-20 08:30N 47°14' W 002°15'612.6
2018-Jun-20 08:00N 47°09' W 002°19'4 7.5
2018-Jun-20 07:30N 47°07' W 002°24'1 1.7
2018-Jun-20 07:00N 47°07' W 002°25'0 0.1
2018-Jun-20 06:27N 47°07' W 002°25'0 0.1
2018-Jun-20 05:57N 47°07' W 002°25'0 0.0
2018-Jun-20 05:30N 47°07' W 002°25'0 0.1
2018-Jun-20 05:00N 47°07' W 002°25'0 0.1
2018-Jun-20 04:30N 47°07' W 002°25'0 0.1
2018-Jun-20 04:00N 47°07' W 002°25'0 0.1
2018-Jun-20 03:30N 47°07' W 002°25'0 0.0
2018-Jun-20 03:00N 47°07' W 002°25'0 0.0
2018-Jun-20 02:30N 47°07' W 002°25'0 0.0
2018-Jun-20 02:00N 47°07' W 002°25'0 0.0
2018-Jun-20 01:27N 47°07' W 002°25'0 0.0
2018-Jun-20 00:57N 47°07' W 002°25'0 0.0
2018-Jun-20 00:30N 47°07' W 002°25'0 0.0
2018-Jun-20 00:00N 47°07' W 002°25'0 0.0
2018-Jun-19 23:30N 47°07' W 002°25'0 0.0
2018-Jun-19 23:00N 47°07' W 002°25'0 0.0
2018-Jun-19 22:30N 47°07' W 002°25'0 0.0
2018-Jun-19 22:00N 47°07' W 002°25'0 0.1
2018-Jun-19 21:30N 47°07' W 002°25'0 0.1
2018-Jun-19 21:00N 47°07' W 002°25'0 0.0
2018-Jun-19 20:30N 47°07' W 002°25'0 0.1
2018-Jun-19 20:00N 47°07' W 002°25'0 0.1
2018-Jun-19 19:30N 47°07' W 002°25'0 0.1
2018-Jun-19 19:00N 47°07' W 002°25'0 0.0
2018-Jun-19 18:30N 47°07' W 002°25'0 0.0
2018-Jun-19 18:00N 47°07' W 002°25'0 0.0
2018-Jun-19 17:30N 47°07' W 002°25'0 0.0
2018-Jun-19 16:39N 47°07' W 002°25'0 0.1
2018-Jun-19 15:45N 47°07' W 002°25'0 0.1
2018-Jun-19 15:30N 47°07' W 002°25'0 0.1
2018-Jun-19 14:21N 47°07' W 002°25'0 0.0
2018-Jun-19 13:39N 47°07' W 002°26'0 0.0
2018-Jun-19 11:54N 47°07' W 002°26'0 0.0
2018-Jun-19 11:30N 47°07' W 002°26'0 0.0
2018-Jun-19 11:00N 47°07' W 002°26'0 0.0
2018-Jun-19 10:21N 47°07' W 002°25'0 0.0
2018-Jun-19 09:54N 47°07' W 002°25'0 0.1
2018-Jun-19 09:27N 47°07' W 002°25'0 0.1
2018-Jun-19 08:57N 47°07' W 002°25'0 0.0
2018-Jun-19 08:30N 47°07' W 002°25'0 0.0
2018-Jun-19 08:00N 47°07' W 002°25'0 0.1
2018-Jun-19 07:31N 47°07' W 002°25'0 0.1
2018-Jun-19 07:00N 47°07' W 002°25'2 4.7
2018-Jun-19 06:30N 47°05' W 002°26'611.5
2018-Jun-19 06:00N 47°02' W 002°33'611.1
2018-Jun-19 05:27N 46°59' W 002°41'611.4
2018-Jun-19 04:53N 47°02' W 002°50'511.5
2018-Jun-19 04:29N 47°04' W 002°56'511.6
2018-Jun-19 04:00N 47°07' W 003°03'612.0
2018-Jun-19 03:30N 47°09' W 003°11'611.6
2018-Jun-19 03:00N 47°12' W 003°19'611.1
2018-Jun-19 02:30N 47°14' W 003°26'611.2
2018-Jun-19 02:01N 47°17' W 003°33'611.4
2018-Jun-19 01:30N 47°19' W 003°41'511.3
2018-Jun-19 01:00N 47°22' W 003°48'611.1
2018-Jun-19 00:30N 47°24' W 003°56'611.5
2018-Jun-19 00:00N 47°26' W 004°04'611.9
2018-Jun-18 23:30N 47°29' W 004°12'611.3
2018-Jun-18 23:00N 47°31' W 004°19'1211.5
2018-Jun-18 21:57N 47°37' W 004°35'2212.0
2018-Jun-18 20:10N 47°48' W 005°03'1312.3
2018-Jun-18 19:04N 47°55' W 005°19'18211.0
2018-Jun-18 02:35N 50°52' W 006°24'511.8
2018-Jun-18 02:09N 50°57' W 006°21'611.6
2018-Jun-18 01:39N 51°03' W 006°19'1911.1
2018-Jun-17 23:54N 51°21' W 006°11'8511.6
2018-Jun-17 16:33N 52°42' W 005°27'115.3
2018-Jun-17 16:30N 52°43' W 005°27'73 9.7
2018-Jun-17 08:58N 53°37' W 004°04'612.2
2018-Jun-17 08:30N 53°36' W 003°55'612.5
2018-Jun-17 08:00N 53°35' W 003°45'612.7
2018-Jun-17 07:30N 53°34' W 003°34'613.1
2018-Jun-17 07:00N 53°33' W 003°23'611.6
2018-Jun-17 06:30N 53°31' W 003°14'612.9
2018-Jun-17 06:00N 53°29' W 003°04'3 5.8
2018-Jun-17 05:30N 53°26' W 003°01'0 0.1
2018-Jun-17 05:00N 53°26' W 003°00'1 1.1
2018-Jun-17 04:30N 53°26' W 003°00'0 0.3
2018-Jun-17 03:58N 53°26' W 003°00'0 0.0
2018-Jun-17 03:28N 53°26' W 002°60'0 0.0
2018-Jun-17 02:58N 53°26' W 003°00'0 0.0
2018-Jun-17 02:28N 53°26' W 003°00'0 0.0
2018-Jun-17 01:58N 53°26' W 003°00'0 0.0
2018-Jun-17 01:28N 53°26' W 003°00'0 0.0
2018-Jun-17 00:58N 53°26' W 003°00'0 0.0
2018-Jun-17 00:28N 53°26' W 003°00'0 0.0
2018-Jun-16 23:58N 53°26' W 003°00'0 0.0
2018-Jun-16 23:28N 53°26' W 003°00'0 0.0
2018-Jun-16 22:55N 53°26' W 003°00'0 0.0
2018-Jun-16 22:25N 53°26' W 002°60'0 0.0
2018-Jun-16 21:58N 53°26' W 003°00'0 0.0
2018-Jun-16 21:28N 53°26' W 003°00'0 0.0
2018-Jun-16 20:58N 53°26' W 003°00'0 0.0
2018-Jun-16 20:28N 53°26' W 003°00'0 0.0
2018-Jun-16 19:58N 53°26' W 003°00'0 0.0
2018-Jun-16 19:28N 53°26' W 003°00'0 0.0
2018-Jun-16 18:58N 53°26' W 003°00'0 0.0
2018-Jun-16 18:28N 53°26' W 003°00'0 0.0
2018-Jun-16 17:58N 53°26' W 003°00'0 0.0
2018-Jun-16 17:28N 53°26' W 003°00'0 0.0
2018-Jun-16 16:58N 53°26' W 003°00'0 0.0
2018-Jun-16 16:28N 53°26' W 003°00'0 0.0
2018-Jun-16 15:55N 53°26' W 003°00'0 0.0
2018-Jun-16 15:28N 53°26' W 003°00'0 0.0
2018-Jun-16 14:55N 53°26' W 003°00'0 0.0
2018-Jun-16 14:25N 53°26' W 003°00'0 0.0
2018-Jun-16 13:58N 53°26' W 003°00'0 0.0
2018-Jun-16 13:25N 53°26' W 003°00'0 0.0
2018-Jun-16 12:55N 53°26' W 003°00'0 0.0
2018-Jun-16 12:28N 53°26' W 003°00'0 0.0
2018-Jun-16 11:58N 53°26' W 003°00'0 0.0
2018-Jun-16 11:28N 53°26' W 003°00'0 0.0
2018-Jun-16 10:58N 53°26' W 003°00'0 0.0
2018-Jun-16 10:28N 53°26' W 003°00'0 0.0
2018-Jun-16 09:58N 53°26' W 003°00'0 0.0
2018-Jun-16 09:28N 53°26' W 002°60'0 0.0
2018-Jun-16 08:55N 53°26' W 003°00'0 0.0
2018-Jun-16 08:28N 53°26' W 003°00'0 0.0
2018-Jun-16 07:58N 53°26' W 003°00'0 0.0
2018-Jun-16 07:28N 53°26' W 003°00'0 0.0
2018-Jun-16 06:58N 53°26' W 003°00'0 0.0
2018-Jun-16 06:28N 53°26' W 003°00'0 0.0
2018-Jun-16 05:58N 53°26' W 003°00'0 0.0
2018-Jun-16 05:28N 53°26' W 003°00'0 0.0
2018-Jun-16 04:52N 53°26' W 003°00'0 0.0
2018-Jun-16 04:28N 53°26' W 003°00'0 0.0
2018-Jun-16 03:58N 53°26' W 003°00'0 0.0
2018-Jun-16 03:28N 53°26' W 003°00'0 0.0
2018-Jun-16 02:58N 53°26' W 003°00'0 0.0
2018-Jun-16 02:28N 53°26' W 003°00'0 0.0
2018-Jun-16 01:55N 53°26' W 003°00'0 0.0
2018-Jun-16 01:22N 53°26' W 002°60'0 0.0
2018-Jun-16 00:58N 53°26' W 003°00'0 0.2
2018-Jun-16 00:30N 53°26' W 003°00'1 1.2
2018-Jun-16 00:00N 53°27' W 003°01'0 0.3
2018-Jun-15 23:29N 53°26' W 003°01'1 2.6
2018-Jun-15 22:59N 53°27' W 003°02'612.6
2018-Jun-15 22:30N 53°32' W 003°09'612.3
2018-Jun-15 22:01N 53°31' W 003°19'3 6.9
2018-Jun-15 21:31N 53°32' W 003°25'510.2
2018-Jun-15 21:00N 53°31' W 003°33'611.3
2018-Jun-15 20:30N 53°31' W 003°43'714.4
2018-Jun-15 20:00N 53°31' W 003°55'  

Dump ship's entire track history